Time;durP1;ratioP1;P1;durP2;ratioP2;P2;SDS_P1;SDS_P2;PMS_P1;PMS_P2;Temp;Humidity;BMP_temperature;BMP_pressure;BME280_temperature;BME280_humidity;BME280_pressure;Samples;Min_cycle;Max_cycle;Signal;HPM_P1;HPM_P2
2021/06/29 00:01:26;;;;;;;2.7;2.4;;;;;;;20.64;70.89063;936.7648;;;;
2021/06/29 00:03:53;;;;;;;3.6;2.3;;;;;;;20.77;70.13965;936.8708;;;;
2021/06/29 00:06:18;;;;;;;3.2;2.2;;;;;;;21.03;69.4541;936.9334;;;;
2021/06/29 00:08:44;;;;;;;2.5;2.3;;;;;;;21.11;69.56055;936.9655;;;;
2021/06/29 00:11:09;;;;;;;4.4;2.5;;;;;;;21.17;69.11426;936.9855;;;;
2021/06/29 00:13:36;;;;;;;3.7;2.3;;;;;;;21.25;68.95117;937.0328;;;;
2021/06/29 00:16:11;;;;;;;2.5;2.3;;;;;;;21.13;69.54004;937.0126;;;;
2021/06/29 00:18:36;;;;;;;3.1;2.3;;;;;;;21.14;68.73535;937.0002;;;;
2021/06/29 00:21:01;;;;;;;2.9;2.4;;;;;;;21.29;69.49512;937.0645;;;;
2021/06/29 00:23:26;;;;;;;3.6;2.4;;;;;;;21.44;67.45898;937.0605;;;;
2021/06/29 00:25:52;;;;;;;2.7;2.5;;;;;;;21.44;68.96777;936.9642;;;;
2021/06/29 00:28:17;;;;;;;2.6;2.4;;;;;;;21.51;68.23145;937.0037;;;;
2021/06/29 00:30:46;;;;;;;2.9;2.2;;;;;;;21.6;67.53027;936.9861;;;;
2021/06/29 00:33:11;;;;;;;3.8;2.2;;;;;;;21.62;68.21289;936.9617;;;;
2021/06/29 00:35:36;;;;;;;4.1;2.3;;;;;;;21.56;67.79297;936.9194;;;;
2021/06/29 00:38:01;;;;;;;4;2.2;;;;;;;21.6;67.32031;936.9495;;;;
2021/06/29 00:40:29;;;;;;;4.6;2.4;;;;;;;21.61;67.16895;936.9396;;;;
2021/06/29 00:42:52;;;;;;;3;2.4;;;;;;;21.48;67.48828;936.9669;;;;
2021/06/29 00:45:17;;;;;;;2.7;2.2;;;;;;;21.44;67.45801;937.0014;;;;
2021/06/29 00:47:42;;;;;;;3.4;2.3;;;;;;;21.49;67.61816;937.0622;;;;
2021/06/29 00:50:10;;;;;;;3;2.5;;;;;;;21.51;67.66895;937.003;;;;
2021/06/29 00:52:35;;;;;;;2.7;2.4;;;;;;;21.47;67.73145;937.0549;;;;
2021/06/29 00:55:00;;;;;;;2.9;2.4;;;;;;;21.46;67.30957;937.0605;;;;
2021/06/29 00:57:25;;;;;;;2.5;2.3;;;;;;;21.52;67.24805;937.1575;;;;
2021/06/29 00:59:51;;;;;;;4;2.3;;;;;;;21.46;68.75;937.3036;;;;
2021/06/29 01:02:16;;;;;;;2.7;2.4;;;;;;;21.39;69.10156;937.2571;;;;
2021/06/29 01:04:41;;;;;;;2.9;2.5;;;;;;;21.34;69.38574;937.2711;;;;
2021/06/29 01:07:06;;;;;;;3.5;2.6;;;;;;;21.37;68.74707;937.2684;;;;
2021/06/29 01:09:31;;;;;;;7.6;3.4;;;;;;;21.38;68.71387;937.2924;;;;
2021/06/29 01:11:57;;;;;;;10;3.5;;;;;;;21.24;69.41797;937.1714;;;;
2021/06/29 01:14:22;;;;;;;6.1;3.2;;;;;;;21.33;69.18457;937.2399;;;;
2021/06/29 01:16:51;;;;;;;7.2;3.2;;;;;;;21.34;69.85449;937.2767;;;;
2021/06/29 01:19:19;;;;;;;3.9;3;;;;;;;21.26;70.2168;937.2461;;;;
2021/06/29 01:21:43;;;;;;;6.1;3.1;;;;;;;21.24;70.00195;937.2498;;;;
2021/06/29 01:24:08;;;;;;;5.9;3.1;;;;;;;21.09;70.22461;937.2697;;;;
2021/06/29 01:26:36;;;;;;;4.8;3;;;;;;;21.04;71.49023;937.2375;;;;
2021/06/29 01:29:03;;;;;;;3.3;2.8;;;;;;;20.96;72.13379;937.2736;;;;
2021/06/29 01:31:26;;;;;;;3;2.8;;;;;;;21.02;71.52441;937.207;;;;
2021/06/29 01:33:53;;;;;;;2.9;2.6;;;;;;;21.1;71.6543;937.3066;;;;
2021/06/29 01:36:18;;;;;;;3;2.7;;;;;;;21.11;71.95801;937.3298;;;;
2021/06/29 01:38:44;;;;;;;2.9;2.6;;;;;;;21.09;71.01953;937.3151;;;;
2021/06/29 01:41:09;;;;;;;3.4;3;;;;;;;21.03;73.95703;937.2266;;;;
2021/06/29 01:43:41;;;;;;;7;3.4;;;;;;;20.83;74.99902;937.1289;;;;
2021/06/29 01:46:02;;;;;;;3.9;3.2;;;;;;;20.42;76.65723;937.0698;;;;
2021/06/29 01:48:28;;;;;;;5.2;3.6;;;;;;;20.49;79.50977;937.1811;;;;
2021/06/29 01:50:53;;;;;;;5.4;3.5;;;;;;;20.52;80.34375;937.2773;;;;
2021/06/29 01:53:21;;;;;;;4.4;3.3;;;;;;;20.52;80.19141;937.473;;;;
2021/06/29 01:55:46;;;;;;;5.4;3.5;;;;;;;20.42;81.61035;937.4967;;;;
2021/06/29 01:58:14;;;;;;;6.5;3.8;;;;;;;20.33;81.99023;937.6472;;;;
2021/06/29 02:00:40;;;;;;;3.8;3.3;;;;;;;20.28;82.43555;937.7222;;;;
2021/06/29 02:03:08;;;;;;;9.9;4.5;;;;;;;20.26;83.69336;937.7017;;;;
2021/06/29 02:05:41;;;;;;;7.1;4.7;;;;;;;20.13;84.20605;937.7374;;;;
2021/06/29 02:08:09;;;;;;;5;3.8;;;;;;;19.54;81.47168;937.7386;;;;
2021/06/29 02:10:34;;;;;;;9.3;5.3;;;;;;;19.48;86.1084;937.6786;;;;
2021/06/29 02:13:01;;;;;;;6.8;4.4;;;;;;;19.42;86.31934;937.6705;;;;
2021/06/29 02:15:31;;;;;;;4.6;4.2;;;;;;;19.4;85.60449;937.543;;;;
2021/06/29 02:17:58;;;;;;;4.4;4;;;;;;;19.37;85.85449;937.6401;;;;
2021/06/29 02:20:23;;;;;;;5.8;4.3;;;;;;;18.96;88.47754;937.7083;;;;
2021/06/29 02:22:51;;;;;;;5.2;4.3;;;;;;;18.85;89.44336;937.7456;;;;
2021/06/29 02:25:15;;;;;;;5.3;4.4;;;;;;;18.99;90.19238;937.6246;;;;
2021/06/29 02:27:41;;;;;;;4.9;4.5;;;;;;;19.01;87.95117;937.7177;;;;
2021/06/29 02:30:06;;;;;;;5.8;4.5;;;;;;;19.08;88.40625;937.8124;;;;
2021/06/29 02:32:32;;;;;;;6.3;4.5;;;;;;;19.08;87.39355;937.8318;;;;
2021/06/29 02:34:57;;;;;;;5.9;4.5;;;;;;;19.14;87.60352;937.8755;;;;
2021/06/29 02:37:25;;;;;;;5.8;4.8;;;;;;;19.1;88.5957;937.8409;;;;
2021/06/29 02:39:49;;;;;;;6.4;4.7;;;;;;;19.12;87.63477;937.8331;;;;
2021/06/29 02:42:18;;;;;;;7.1;4.3;;;;;;;19.01;87.14746;937.7628;;;;
2021/06/29 02:44:42;;;;;;;5.6;4.6;;;;;;;18.92;88.375;937.6382;;;;
2021/06/29 02:47:11;;;;;;;5.9;5.2;;;;;;;19.01;89.46484;937.7258;;;;
2021/06/29 02:49:36;;;;;;;5.4;4.9;;;;;;;19.08;88.89551;937.7534;;;;
2021/06/29 02:52:01;;;;;;;6.1;4.8;;;;;;;19.05;88.59863;937.7653;;;;
2021/06/29 02:54:26;;;;;;;6.6;5.3;;;;;;;18.97;88.93164;937.6904;;;;
2021/06/29 02:56:52;;;;;;;8.1;5.7;;;;;;;19.07;89.14941;937.7198;;;;
2021/06/29 02:59:17;;;;;;;7.4;5.5;;;;;;;19.11;89.48633;937.7558;;;;
2021/06/29 03:01:42;;;;;;;5.5;4.7;;;;;;;19.06;90.03418;937.8297;;;;
2021/06/29 03:04:08;;;;;;;6.3;5.7;;;;;;;18.96;90.95508;937.8326;;;;
2021/06/29 03:06:34;;;;;;;6.3;5.7;;;;;;;18.75;91.5293;937.7597;;;;
2021/06/29 03:08:59;;;;;;;7.2;5.6;;;;;;;18.82;91.18164;937.6985;;;;
2021/06/29 03:11:25;;;;;;;5.7;5;;;;;;;18.91;90.6416;937.6685;;;;
2021/06/29 03:13:50;;;;;;;7.3;5.3;;;;;;;18.88;91.32227;937.6465;;;;
2021/06/29 03:16:16;;;;;;;8.5;5.5;;;;;;;18.87;91.13379;937.7332;;;;
2021/06/29 03:18:43;;;;;;;6.3;5.7;;;;;;;18.85;90.78125;937.8125;;;;
2021/06/29 03:21:09;;;;;;;6.1;5.2;;;;;;;18.9;88.8584;937.8575;;;;
2021/06/29 03:23:37;;;;;;;5.9;5;;;;;;;18.72;90.45117;937.8816;;;;
2021/06/29 03:26:02;;;;;;;5.6;5;;;;;;;18.8;89.80664;937.9013;;;;
2021/06/29 03:28:31;;;;;;;5.5;5;;;;;;;18.86;90.39941;937.8197;;;;
2021/06/29 03:30:56;;;;;;;7.3;6.3;;;;;;;18.77;91.11328;937.7947;;;;
2021/06/29 03:33:25;;;;;;;7.7;5.7;;;;;;;18.9;90.15234;937.6557;;;;
2021/06/29 03:35:56;;;;;;;7.8;5.7;;;;;;;18.89;89.69531;937.5639;;;;
2021/06/29 03:38:24;;;;;;;8.9;6.5;;;;;;;18.82;89.79688;937.5469;;;;
2021/06/29 03:40:48;;;;;;;10.8;6.8;;;;;;;18.71;91.08887;937.5259;;;;
2021/06/29 03:43:16;;;;;;;9.7;6.8;;;;;;;18.79;91.09375;937.4409;;;;
2021/06/29 03:45:41;;;;;;;8.6;5.6;;;;;;;18.85;89.55957;937.5545;;;;
2021/06/29 03:48:08;;;;;;;7.9;6.3;;;;;;;18.92;89.53711;937.5536;;;;
2021/06/29 03:50:33;;;;;;;7.8;6.1;;;;;;;18.93;90.14648;937.5864;;;;
2021/06/29 03:52:59;;;;;;;8.9;6.1;;;;;;;18.96;90.6543;937.5662;;;;
2021/06/29 03:55:25;;;;;;;6.9;6.2;;;;;;;18.92;89.63086;937.5673;;;;
2021/06/29 03:57:51;;;;;;;7.7;6.1;;;;;;;18.79;89.88379;937.5944;;;;
2021/06/29 04:02:30;;;;;;;11;6.2;;;;;;;18.82;89.99609;937.6003;;;;
2021/06/29 04:04:55;;;;;;;6.7;6;;;;;;;18.76;90.90234;937.6951;;;;
2021/06/29 04:07:24;;;;;;;8.3;6.1;;;;;;;18.77;90.81152;937.7327;;;;
2021/06/29 04:09:48;;;;;;;7.5;6.7;;;;;;;18.78;91.69727;937.8253;;;;
2021/06/29 04:12:15;;;;;;;7.2;5.8;;;;;;;18.69;92.24902;937.9926;;;;
2021/06/29 04:14:40;;;;;;;7.4;6.1;;;;;;;18.63;93.36328;938.1457;;;;
2021/06/29 04:17:13;;;;;;;7.9;6.1;;;;;;;18.49;93.73047;938.2867;;;;
2021/06/29 04:19:39;;;;;;;7.3;6.3;;;;;;;18.53;94.25195;938.3438;;;;
2021/06/29 04:22:03;;;;;;;7.5;5.9;;;;;;;18.34;93.88574;938.3184;;;;
2021/06/29 04:24:28;;;;;;;8.3;6.4;;;;;;;18.18;94.65234;938.2867;;;;
2021/06/29 04:26:53;;;;;;;8.3;6.8;;;;;;;18.16;94.41406;938.2808;;;;
2021/06/29 04:29:24;;;;;;;7.7;6.9;;;;;;;18.1;95.59961;938.2424;;;;
2021/06/29 04:31:49;;;;;;;7.2;6.5;;;;;;;17.74;97.37793;938.1487;;;;
2021/06/29 04:34:17;;;;;;;7.4;6.7;;;;;;;17.77;98.19629;938.1594;;;;
2021/06/29 04:36:48;;;;;;;6.9;6.3;;;;;;;17.89;97.54004;938.1978;;;;
2021/06/29 04:39:18;;;;;;;7;6.4;;;;;;;17.9;97.21484;938.1937;;;;
2021/06/29 04:41:43;;;;;;;6.6;5.9;;;;;;;17.87;96.84863;938.2578;;;;
2021/06/29 04:44:10;;;;;;;6.3;5.8;;;;;;;18.11;95.97266;938.2446;;;;
2021/06/29 04:46:35;;;;;;;6.2;5.1;;;;;;;18.07;95.29102;938.21;;;;
2021/06/29 04:49:02;;;;;;;5.5;5;;;;;;;18.17;94.56738;938.2209;;;;
2021/06/29 04:51:27;;;;;;;5.8;5.2;;;;;;;18.33;94.28809;938.2205;;;;
2021/06/29 04:53:52;;;;;;;6.6;5.2;;;;;;;18.42;94.88867;938.2017;;;;
2021/06/29 04:56:17;;;;;;;6.3;5.7;;;;;;;18.48;94.03027;938.1636;;;;
2021/06/29 04:58:45;;;;;;;5.7;5.2;;;;;;;18.54;93.62305;938.2808;;;;
2021/06/29 05:01:10;;;;;;;5.9;5.3;;;;;;;18.59;93.42383;938.1072;;;;
2021/06/29 05:03:35;;;;;;;6.6;5.3;;;;;;;18.6;93.27637;937.9803;;;;
2021/06/29 05:06:00;;;;;;;5.6;4.9;;;;;;;18.64;92.55273;938.0469;;;;
2021/06/29 05:08:27;;;;;;;8;5.7;;;;;;;18.69;92.25977;938.2621;;;;
2021/06/29 05:10:53;;;;;;;5.4;4.9;;;;;;;18.66;93.03418;938.274;;;;
2021/06/29 05:13:21;;;;;;;6;5.4;;;;;;;18.74;92.53906;938.264;;;;
2021/06/29 05:15:49;;;;;;;5.7;5.1;;;;;;;18.74;91.3877;938.2076;;;;
2021/06/29 05:18:17;;;;;;;5.2;4.7;;;;;;;18.8;91.11914;938.2186;;;;
2021/06/29 05:20:45;;;;;;;6.4;5.2;;;;;;;18.74;91.92285;938.248;;;;
2021/06/29 05:23:10;;;;;;;5.6;5.1;;;;;;;18.77;91.81152;938.2136;;;;
2021/06/29 05:25:41;;;;;;;5.6;5.1;;;;;;;18.75;92.38965;938.1494;;;;
2021/06/29 05:28:08;;;;;;;5.5;5;;;;;;;18.78;92.4668;938.134;;;;
2021/06/29 05:30:33;;;;;;;6.4;5.3;;;;;;;18.72;93.29004;938.0759;;;;
2021/06/29 05:33:00;;;;;;;5.4;4.9;;;;;;;18.84;91.91992;938.1541;;;;
2021/06/29 05:35:25;;;;;;;5.5;4.9;;;;;;;18.94;91.30078;938.1616;;;;
2021/06/29 05:37:52;;;;;;;5.9;5;;;;;;;18.99;91.72852;938.2137;;;;
2021/06/29 05:40:17;;;;;;;7.3;4.8;;;;;;;19.04;91.04199;938.2684;;;;
2021/06/29 05:42:43;;;;;;;5.2;4.2;;;;;;;19.18;89.94043;938.313;;;;
2021/06/29 05:45:09;;;;;;;4.7;4.3;;;;;;;19.24;89.15137;938.302;;;;
2021/06/29 05:47:36;;;;;;;4.2;3.8;;;;;;;19.33;88.25879;938.3225;;;;
2021/06/29 05:50:00;;;;;;;4.4;4;;;;;;;19.25;89.25781;938.3058;;;;
2021/06/29 05:52:26;;;;;;;3.9;3.5;;;;;;;19.36;86.56348;938.3582;;;;
2021/06/29 05:54:51;;;;;;;3.8;3.5;;;;;;;19.45;85.5791;938.378;;;;
2021/06/29 05:57:18;;;;;;;3.9;3.5;;;;;;;19.43;87.14844;938.4585;;;;
2021/06/29 05:59:43;;;;;;;4;3.5;;;;;;;19.35;88.04102;938.5747;;;;
2021/06/29 06:02:11;;;;;;;3.4;3.1;;;;;;;19.36;86.58789;938.6553;;;;
2021/06/29 06:04:36;;;;;;;4;2.7;;;;;;;19.38;85.57813;938.6661;;;;
2021/06/29 06:07:06;;;;;;;3.3;3;;;;;;;19.46;85.15137;938.6289;;;;
2021/06/29 06:09:35;;;;;;;5.1;3.4;;;;;;;19.65;86.5498;938.6719;;;;
2021/06/29 06:12:00;;;;;;;6.3;3.4;;;;;;;19.7;85.33594;938.6922;;;;
2021/06/29 06:14:25;;;;;;;3.7;2.9;;;;;;;19.49;83.38477;938.6816;;;;
2021/06/29 06:16:51;;;;;;;4.4;2.9;;;;;;;19.21;85.10059;938.6981;;;;
2021/06/29 06:19:21;;;;;;;3.7;3.4;;;;;;;19.31;85.76172;938.6057;;;;
2021/06/29 06:21:45;;;;;;;5.1;3.7;;;;;;;19.25;85.51855;938.4124;;;;
2021/06/29 06:24:11;;;;;;;3.1;2.7;;;;;;;19.09;86.02246;938.2737;;;;
2021/06/29 06:26:37;;;;;;;2.8;2.6;;;;;;;19.23;86.06055;938.2619;;;;
2021/06/29 06:29:02;;;;;;;4.5;2.9;;;;;;;19.73;86.32129;938.3287;;;;
2021/06/29 06:31:27;;;;;;;3.5;2.6;;;;;;;20.24;85.23047;938.1923;;;;
2021/06/29 06:33:53;;;;;;;2.6;2.4;;;;;;;20.88;81.57617;938.0616;;;;
2021/06/29 06:36:18;;;;;;;3.8;2.6;;;;;;;21.3;79.24414;937.9602;;;;
2021/06/29 06:38:45;;;;;;;4.6;2.2;;;;;;;23.25;70.35449;937.9889;;;;
2021/06/29 06:41:13;;;;;;;3;2.2;;;;;;;23.72;68.13574;937.8849;;;;
2021/06/29 06:43:35;;;;;;;3.4;2;;;;;;;23.5;66.52539;937.8261;;;;
2021/06/29 06:46:02;;;;;;;3.7;2.4;;;;;;;23.13;68.9502;937.7592;;;;
2021/06/29 06:48:27;;;;;;;2;1.9;;;;;;;22.79;69.4834;937.7889;;;;
2021/06/29 06:50:53;;;;;;;2.4;2.2;;;;;;;23.78;67.40332;937.772;;;;
2021/06/29 06:53:18;;;;;;;1.8;1.6;;;;;;;25.16;59.95117;937.6795;;;;
2021/06/29 06:55:43;;;;;;;3.3;1.8;;;;;;;26.29;55.20313;937.6641;;;;
2021/06/29 06:58:08;;;;;;;2;1.6;;;;;;;26.59;54.83789;937.5933;;;;
2021/06/29 07:00:36;;;;;;;3.2;1.7;;;;;;;27.18;51.56543;937.5695;;;;
2021/06/29 07:03:01;;;;;;;2;1.3;;;;;;;28.66;49.45215;937.4614;;;;
2021/06/29 07:05:28;;;;;;;1.3;1.2;;;;;;;30.35;48.20508;937.3847;;;;
2021/06/29 07:07:53;;;;;;;1.9;1.4;;;;;;;30.96;42.33887;937.3538;;;;
2021/06/29 07:10:21;;;;;;;1.5;1.4;;;;;;;29.26;47.29004;937.2325;;;;
2021/06/29 07:12:46;;;;;;;2.7;1.4;;;;;;;30.63;44.86523;937.2974;;;;
2021/06/29 07:15:16;;;;;;;1.3;1.2;;;;;;;32.06;41.74707;937.2342;;;;
2021/06/29 07:17:41;;;;;;;1.9;1.4;;;;;;;32.5;39.2793;937.199;;;;
2021/06/29 07:20:12;;;;;;;2.5;1.5;;;;;;;32.07;41.28027;937.1806;;;;
2021/06/29 07:22:39;;;;;;;1.2;1.1;;;;;;;32.18;39.45605;937.1006;;;;
2021/06/29 07:25:04;;;;;;;2.8;1.3;;;;;;;33.33;37.64453;937.0452;;;;
2021/06/29 07:27:46;;;;;;;1.8;1.3;;;;;;;33.68;38.37109;936.9667;;;;
2021/06/29 07:30:14;;;;;;;1.8;1.2;;;;;;;35.08;35.09863;936.8494;;;;
2021/06/29 07:32:42;;;;;;;1.5;1.1;;;;;;;31.22;41.0957;936.7847;;;;
2021/06/29 07:35:04;;;;;;;1.2;1.1;;;;;;;32.3;38.24316;936.6813;;;;
2021/06/29 07:37:30;;;;;;;1.3;1.1;;;;;;;32;36.68457;936.59;;;;
2021/06/29 07:39:55;;;;;;;2;1;;;;;;;32.77;35.33008;936.5684;;;;
2021/06/29 07:42:20;;;;;;;1.2;1.1;;;;;;;33.41;34.09277;936.4567;;;;
2021/06/29 07:44:45;;;;;;;2.1;1.2;;;;;;;34.61;33.60352;936.4228;;;;
2021/06/29 07:47:10;;;;;;;1.3;1;;;;;;;34.79;33.15918;936.4239;;;;
2021/06/29 07:49:35;;;;;;;1.2;1.1;;;;;;;35.67;32.48633;936.4045;;;;
2021/06/29 07:52:03;;;;;;;2;1.2;;;;;;;33.96;34.96387;936.382;;;;
2021/06/29 07:54:28;;;;;;;2.1;1.1;;;;;;;34.31;34.36523;936.3289;;;;
2021/06/29 07:56:54;;;;;;;2;1;;;;;;;34.78;33.77344;936.2742;;;;
2021/06/29 07:59:19;;;;;;;1.2;1;;;;;;;34.73;35.38574;936.2656;;;;
2021/06/29 08:01:44;;;;;;;2.5;1.3;;;;;;;30.45;40.71484;936.2603;;;;
2021/06/29 08:04:36;;;;;;;2.7;1.2;;;;;;;28.86;43.57129;936.1858;;;;
2021/06/29 08:07:29;;;;;;;1.4;0.9;;;;;;;31.84;35.97559;936.0911;;;;
2021/06/29 08:09:57;;;;;;;4.6;1.4;;;;;;;32.81;37.1582;936.0008;;;;
2021/06/29 08:12:22;;;;;;;1;0.9;;;;;;;28.93;45.50586;935.8787;;;;
2021/06/29 08:14:50;;;;;;;3.4;1.7;;;;;;;25.76;53.07031;935.8304;;;;
2021/06/29 08:17:15;;;;;;;1.6;1.1;;;;;;;27.99;48.82031;935.7606;;;;
2021/06/29 08:19:41;;;;;;;3.2;1.2;;;;;;;31.38;40.83398;935.6742;;;;
2021/06/29 08:25:30;;;;;;;0.7;0.6;;;;;;;30.85;37.02148;935.4799;;;;
2021/06/29 08:27:55;;;;;;;1.1;1;;;;;;;33.14;33.88086;935.4604;;;;
2021/06/29 08:30:22;;;;;;;1.9;0.9;;;;;;;34.28;32.85742;935.4115;;;;
2021/06/29 08:32:47;;;;;;;0.8;0.8;;;;;;;30.51;36.19336;935.3259;;;;
2021/06/29 08:35:14;;;;;;;0.9;0.9;;;;;;;33.48;35.33691;935.2851;;;;
2021/06/29 08:37:39;;;;;;;1.4;1;;;;;;;32.39;36.04297;935.1792;;;;
2021/06/29 08:40:11;;;;;;;1.2;1;;;;;;;29.85;41.31543;935.1158;;;;
2021/06/29 08:42:41;;;;;;;1.4;1;;;;;;;29.63;42.31055;935.0186;;;;
2021/06/29 08:45:06;;;;;;;0.9;0.9;;;;;;;29.63;39.96191;935.0606;;;;
2021/06/29 08:47:32;;;;;;;1.6;0.8;;;;;;;28.35;42.87988;934.9397;;;;
2021/06/29 08:49:57;;;;;;;0.7;0.7;;;;;;;30.41;38.2627;934.8237;;;;
2021/06/29 08:52:22;;;;;;;3.1;0.9;;;;;;;29.9;35.88086;934.8002;;;;
2021/06/29 08:54:47;;;;;;;0.8;0.7;;;;;;;30.09;35.96875;934.7186;;;;
2021/06/29 08:57:12;;;;;;;0.7;0.7;;;;;;;31.48;34.47559;934.7549;;;;
2021/06/29 08:59:37;;;;;;;1.3;0.9;;;;;;;31.41;38.73145;934.6894;;;;
2021/06/29 09:02:02;;;;;;;2;1.3;;;;;;;32.9;35.30371;934.6847;;;;
2021/06/29 09:04:30;;;;;;;1;0.9;;;;;;;31.68;34.61035;934.6178;;;;
2021/06/29 09:06:55;;;;;;;1.1;1;;;;;;;30.8;37.98535;934.6279;;;;
2021/06/29 09:09:24;;;;;;;1;0.9;;;;;;;29.8;40.0127;934.4913;;;;
2021/06/29 09:11:49;;;;;;;1.7;1;;;;;;;30.78;40.50586;934.4955;;;;
2021/06/29 09:14:16;;;;;;;3.1;0.9;;;;;;;30.92;38.38965;934.4224;;;;
2021/06/29 09:16:47;;;;;;;0.7;0.7;;;;;;;31.63;36.86914;934.4124;;;;
2021/06/29 09:19:11;;;;;;;0.8;0.8;;;;;;;30.62;40.20508;934.3519;;;;
2021/06/29 09:21:39;;;;;;;1;0.9;;;;;;;30.96;40.05566;934.2647;;;;
2021/06/29 09:24:05;;;;;;;1.7;0.8;;;;;;;30.92;38.9873;934.196;;;;
2021/06/29 09:26:30;;;;;;;1.9;0.7;;;;;;;30.71;39.00488;934.1037;;;;
2021/06/29 09:28:58;;;;;;;3.4;0.9;;;;;;;31.85;36.39648;934.077;;;;
2021/06/29 09:31:23;;;;;;;1.8;0.7;;;;;;;31.71;38.54004;933.9417;;;;
2021/06/29 09:33:48;;;;;;;2.5;1.1;;;;;;;31.92;39.36133;933.847;;;;
2021/06/29 09:36:16;;;;;;;0.9;0.8;;;;;;;31.04;37.95801;933.8356;;;;
2021/06/29 09:38:53;;;;;;;1.9;1;;;;;;;31.34;38.94043;933.8038;;;;
2021/06/29 09:42:30;;;;;;;0.9;0.9;;;;;;;31.26;38.01172;933.7214;;;;
2021/06/29 09:44:52;;;;;;;1.2;0.9;;;;;;;27.54;44.49902;933.6721;;;;
2021/06/29 09:47:19;;;;;;;1.2;1.1;;;;;;;29.49;43.7627;933.6052;;;;
2021/06/29 09:49:44;;;;;;;1.1;1;;;;;;;30.47;40.96777;933.5281;;;;
2021/06/29 09:52:11;;;;;;;1.9;0.9;;;;;;;29.77;38.67383;933.5087;;;;
2021/06/29 09:54:37;;;;;;;2.1;1.1;;;;;;;29.93;43.07813;933.4265;;;;
2021/06/29 09:57:03;;;;;;;1.1;0.9;;;;;;;30.55;39.11133;933.3917;;;;
2021/06/29 09:59:29;;;;;;;3.1;0.9;;;;;;;30.26;44.42285;933.3262;;;;
2021/06/29 10:01:56;;;;;;;1.2;1.1;;;;;;;30.39;43.39648;933.288;;;;
2021/06/29 10:04:22;;;;;;;1.8;1;;;;;;;29.56;46.0459;933.2001;;;;
2021/06/29 10:06:48;;;;;;;2.5;1.1;;;;;;;29.81;46.37012;933.1403;;;;
2021/06/29 10:09:25;;;;;;;1;0.9;;;;;;;27.58;52.97656;933.2392;;;;
2021/06/29 10:11:53;;;;;;;1.9;1.3;;;;;;;26.53;53.6582;933.2015;;;;
2021/06/29 10:14:17;;;;;;;3;1.3;;;;;;;26.04;54.16797;933.1589;;;;
2021/06/29 10:16:44;;;;;;;2;1.3;;;;;;;25.95;55.43359;933.0506;;;;
2021/06/29 10:19:24;;;;;;;1.9;1.2;;;;;;;26.19;55.26074;932.9895;;;;
2021/06/29 10:21:32;;;;;;;1.1;1;;;;;;;25.74;54.76953;932.9613;;;;
2021/06/29 10:23:57;;;;;;;1.5;1.1;;;;;;;25.26;55.40723;932.9442;;;;
2021/06/29 10:26:26;;;;;;;1.7;1.2;;;;;;;25.54;58.18262;932.8211;;;;
2021/06/29 10:28:51;;;;;;;1.2;1.1;;;;;;;25.57;60.14746;932.7795;;;;
2021/06/29 10:31:16;;;;;;;2.1;1.3;;;;;;;25.68;55.67188;932.6281;;;;
2021/06/29 10:33:43;;;;;;;1.4;1.1;;;;;;;26.04;54.2627;932.5844;;;;
2021/06/29 10:36:08;;;;;;;1.3;1.2;;;;;;;26.46;51.37695;932.6039;;;;
2021/06/29 10:38:37;;;;;;;1.3;1.2;;;;;;;26.85;53.97949;932.5187;;;;
2021/06/29 10:41:02;;;;;;;1.4;1.3;;;;;;;26.87;53.97168;932.4698;;;;
2021/06/29 10:43:27;;;;;;;3;1.1;;;;;;;26.39;54.89648;932.4178;;;;
2021/06/29 10:45:55;;;;;;;1.1;1;;;;;;;26.72;55.29297;932.3317;;;;
2021/06/29 10:48:20;;;;;;;1.6;1.2;;;;;;;26.55;56.96484;932.3095;;;;
2021/06/29 10:50:45;;;;;;;1.3;1;;;;;;;26.7;54.10547;932.2219;;;;
2021/06/29 10:53:11;;;;;;;1.3;1.1;;;;;;;26.77;54.97852;932.1932;;;;
2021/06/29 10:55:36;;;;;;;2.1;1.1;;;;;;;26.78;56.1416;932.1971;;;;
2021/06/29 10:58:03;;;;;;;1.8;1.3;;;;;;;26.57;56.44629;932.0452;;;;
2021/06/29 11:00:31;;;;;;;1.3;1.2;;;;;;;26.67;57.61914;932.0483;;;;
2021/06/29 11:02:55;;;;;;;4.2;1.3;;;;;;;26.78;55.4541;932.0158;;;;
2021/06/29 11:05:22;;;;;;;1.2;1;;;;;;;26.94;54.40625;931.9855;;;;
2021/06/29 11:07:47;;;;;;;1.2;1.1;;;;;;;27.03;55.1416;931.829;;;;
2021/06/29 11:10:12;;;;;;;1;1;;;;;;;26.77;57.18262;931.8448;;;;
2021/06/29 11:12:42;;;;;;;2;1.1;;;;;;;26.5;61.73047;931.842;;;;
2021/06/29 11:15:06;;;;;;;1.6;1.1;;;;;;;26.13;58.03418;931.7416;;;;
2021/06/29 11:17:31;;;;;;;1.1;1.1;;;;;;;26.51;55.01855;931.74;;;;
2021/06/29 11:19:57;;;;;;;1.3;1.2;;;;;;;26.51;53.83301;931.6319;;;;
2021/06/29 11:22:22;;;;;;;1.6;1.3;;;;;;;26.53;56.67773;931.5461;;;;
2021/06/29 11:24:48;;;;;;;1.1;1.1;;;;;;;26.65;55.52051;931.4991;;;;
2021/06/29 11:27:13;;;;;;;2.1;1.3;;;;;;;26.92;54.16602;931.4853;;;;
2021/06/29 11:29:38;;;;;;;1;1;;;;;;;26.76;54.2666;931.4579;;;;
2021/06/29 11:32:03;;;;;;;1.2;1.1;;;;;;;26.59;54.93262;931.3694;;;;
2021/06/29 11:34:30;;;;;;;1.7;1.1;;;;;;;26.69;54.53027;931.2459;;;;
2021/06/29 11:36:55;;;;;;;2.2;1.4;;;;;;;26.47;54.38574;931.199;;;;
2021/06/29 11:39:22;;;;;;;1.4;1.3;;;;;;;26.37;54.55078;931.1863;;;;
2021/06/29 11:41:47;;;;;;;1.4;1.3;;;;;;;26.54;53.7666;931.1342;;;;
2021/06/29 11:44:12;;;;;;;1.4;1.3;;;;;;;26.73;54.07324;931.0626;;;;
2021/06/29 11:46:37;;;;;;;1.8;1.3;;;;;;;27.31;53.43066;931.0406;;;;
2021/06/29 11:49:03;;;;;;;1.5;1.4;;;;;;;27.55;54.21875;930.9274;;;;
2021/06/29 11:51:30;;;;;;;1.8;1.2;;;;;;;27.81;52.41016;930.8508;;;;
2021/06/29 11:53:55;;;;;;;2.3;1.3;;;;;;;27.84;51.13184;930.8006;;;;
2021/06/29 11:56:20;;;;;;;1.3;1.2;;;;;;;28.15;50.13281;930.8423;;;;
2021/06/29 11:58:46;;;;;;;1.2;1.1;;;;;;;28.01;53.09863;930.7908;;;;
2021/06/29 12:01:13;;;;;;;1.4;1.3;;;;;;;27.69;54.15332;930.7866;;;;
2021/06/29 12:03:37;;;;;;;2.9;1.2;;;;;;;27.01;56.86914;930.7224;;;;
2021/06/29 12:06:03;;;;;;;2;1.3;;;;;;;26.7;57.04297;930.7231;;;;
2021/06/29 12:08:28;;;;;;;1.8;1.4;;;;;;;26.88;54.69531;930.653;;;;
2021/06/29 12:10:58;;;;;;;1.9;1.5;;;;;;;27.03;55.81641;930.5623;;;;
2021/06/29 12:13:24;;;;;;;1.2;1.1;;;;;;;27.3;52.82422;930.5442;;;;
2021/06/29 12:15:53;;;;;;;3.5;1.5;;;;;;;27.13;52.54492;930.3859;;;;
2021/06/29 12:18:22;;;;;;;1.7;1.5;;;;;;;27.36;53.01074;930.3452;;;;
2021/06/29 12:20:53;;;;;;;1.7;1.5;;;;;;;27.33;54.37109;930.3413;;;;
2021/06/29 12:23:18;;;;;;;1.4;1.3;;;;;;;27.03;53.7666;930.2681;;;;
2021/06/29 12:25:44;;;;;;;1.7;1.3;;;;;;;27.12;53.2666;930.1943;;;;
2021/06/29 12:28:09;;;;;;;1.5;1.4;;;;;;;26.69;56.69727;930.2281;;;;
2021/06/29 12:30:42;;;;;;;2.1;1.5;;;;;;;26.17;59.02246;930.2703;;;;
2021/06/29 12:33:12;;;;;;;1.5;1.4;;;;;;;26;57.12988;930.1945;;;;
2021/06/29 12:35:36;;;;;;;1.4;1.3;;;;;;;26.13;55.2666;930.0336;;;;
2021/06/29 12:38:02;;;;;;;2.7;1.5;;;;;;;26.42;55.32715;929.9917;;;;
2021/06/29 12:40:30;;;;;;;3.7;1.6;;;;;;;26.44;54.77246;929.9819;;;;
2021/06/29 12:42:55;;;;;;;1.8;1.4;;;;;;;26.48;54.57617;929.9465;;;;
2021/06/29 12:45:20;;;;;;;1.9;1.2;;;;;;;26.65;53.83887;930.0175;;;;
2021/06/29 12:47:45;;;;;;;3;1.3;;;;;;;26.4;55.77344;929.9509;;;;
2021/06/29 12:50:10;;;;;;;1.5;1.4;;;;;;;26.58;54.46973;929.9219;;;;
2021/06/29 12:52:37;;;;;;;3.2;1.3;;;;;;;26.89;56.00098;929.91;;;;
2021/06/29 12:55:02;;;;;;;3.3;1.7;;;;;;;27.15;53.48242;929.9484;;;;
2021/06/29 12:57:29;;;;;;;1.7;1.6;;;;;;;27.16;53.04688;929.9277;;;;
2021/06/29 12:59:55;;;;;;;2.5;1.6;;;;;;;27.15;55.04883;929.9405;;;;
2021/06/29 13:02:23;;;;;;;2.2;1.6;;;;;;;27.31;53.47852;929.9146;;;;
2021/06/29 13:04:50;;;;;;;2.3;1.5;;;;;;;27.04;53.79004;929.8389;;;;
2021/06/29 13:07:14;;;;;;;1.5;1.4;;;;;;;27.29;53.32227;929.7767;;;;
2021/06/29 13:09:39;;;;;;;2.6;1.5;;;;;;;27.35;54.2793;929.6563;;;;
2021/06/29 13:12:07;;;;;;;1.7;1.5;;;;;;;27.12;57.56934;929.5201;;;;
2021/06/29 13:14:32;;;;;;;1.6;1.5;;;;;;;27.37;56.29688;929.4061;;;;
2021/06/29 13:17:06;;;;;;;1.5;1.4;;;;;;;27.73;55.46387;929.3831;;;;
2021/06/29 13:19:33;;;;;;;1.4;1.3;;;;;;;27.31;58.51953;929.4875;;;;
2021/06/29 13:21:58;;;;;;;2.8;1.5;;;;;;;27.37;54.33984;929.4535;;;;
2021/06/29 13:24:22;;;;;;;1.4;1.3;;;;;;;26.98;55.64355;929.4313;;;;
2021/06/29 13:26:49;;;;;;;7.2;2;;;;;;;26.66;57.55859;929.4581;;;;
2021/06/29 13:29:14;;;;;;;2;1.5;;;;;;;26.44;58.57227;929.5955;;;;
2021/06/29 13:31:45;;;;;;;2.8;1.9;;;;;;;26.23;58.76953;929.5932;;;;
2021/06/29 13:34:11;;;;;;;2;1.8;;;;;;;26.29;58.0918;929.5223;;;;
2021/06/29 13:36:36;;;;;;;1.6;1.5;;;;;;;26.71;57.5293;929.5325;;;;
2021/06/29 13:39:01;;;;;;;1.9;1.7;;;;;;;26.75;58.49512;929.5686;;;;
2021/06/29 13:41:26;;;;;;;2;1.8;;;;;;;26.62;58.12207;929.5952;;;;
2021/06/29 13:43:56;;;;;;;1.9;1.7;;;;;;;26.55;59.23828;929.5966;;;;
2021/06/29 13:46:22;;;;;;;2.1;1.7;;;;;;;26.15;59.01855;929.608;;;;
2021/06/29 13:48:48;;;;;;;2.5;1.7;;;;;;;25.89;59.51758;929.6677;;;;
2021/06/29 13:51:15;;;;;;;2.8;1.8;;;;;;;25.75;60.33691;929.7335;;;;
2021/06/29 13:53:40;;;;;;;1.9;1.8;;;;;;;25.66;60.46777;929.785;;;;
2021/06/29 13:56:07;;;;;;;3.2;2.1;;;;;;;25.89;60.51074;929.8795;;;;
2021/06/29 13:58:32;;;;;;;3.2;1.9;;;;;;;25.93;59.45117;929.8364;;;;
2021/06/29 14:00:57;;;;;;;3.7;1.8;;;;;;;25.7;60.27051;929.8981;;;;
2021/06/29 14:03:24;;;;;;;2.2;1.9;;;;;;;25.65;61.28027;929.9794;;;;
2021/06/29 14:05:50;;;;;;;3.2;1.9;;;;;;;25.75;61.07031;930.0385;;;;
2021/06/29 14:08:15;;;;;;;1.9;1.8;;;;;;;25.52;62.72852;930.0159;;;;
2021/06/29 14:10:40;;;;;;;2.2;1.9;;;;;;;25.61;61.78418;930.0115;;;;
2021/06/29 14:13:06;;;;;;;2.7;1.9;;;;;;;25.42;61.55762;930.0496;;;;
2021/06/29 14:15:40;;;;;;;1.8;1.7;;;;;;;25.38;62.31836;930.0002;;;;
2021/06/29 14:18:06;;;;;;;3.3;2.1;;;;;;;25.09;59.97559;929.817;;;;
2021/06/29 14:20:37;;;;;;;9.2;2.1;;;;;;;24.66;58.59863;929.8236;;;;
2021/06/29 14:23:05;;;;;;;2.4;1.7;;;;;;;24.31;57.52832;929.8497;;;;
2021/06/29 14:25:31;;;;;;;2.6;1.5;;;;;;;24.14;56.6582;930.1261;;;;
2021/06/29 14:28:01;;;;;;;2;1.6;;;;;;;23.91;56.24023;930.2227;;;;